createdAt,value
2023-03-29T00:00:01.357Z,95325.44
2023-03-29T00:02:31.953Z,95325.38
2023-03-29T00:05:04.247Z,95322.06
2023-03-29T00:07:33.452Z,95340.06
2023-03-29T00:10:00.268Z,95344.69
2023-03-29T00:12:27.125Z,95346.69
2023-03-29T00:14:54.415Z,95352.81
2023-03-29T00:17:21.064Z,95360.97
2023-03-29T00:19:49.065Z,95366.78
2023-03-29T00:22:15.896Z,95377.78
2023-03-29T00:24:42.591Z,95367.91
2023-03-29T00:27:09.159Z,95370.81
2023-03-29T00:29:35.732Z,95385.44
2023-03-29T00:32:02.360Z,95372.81
2023-03-29T00:34:30.772Z,95379.06
2023-03-29T00:36:58.996Z,95378.25
2023-03-29T00:39:26.460Z,95379.25
2023-03-29T00:41:53.329Z,95359.25
2023-03-29T00:44:58.958Z,95367.50
2023-03-29T00:47:29.074Z,95387.81
2023-03-29T00:50:00.218Z,95381.94
2023-03-29T00:52:32.039Z,95376.06
2023-03-29T00:55:03.400Z,95368.44
2023-03-29T00:57:31.188Z,95368.63
2023-03-29T00:59:59.915Z,95369.06
2023-03-29T01:02:29.982Z,95359.44
2023-03-29T01:05:05.361Z,95360.44
2023-03-29T01:07:40.485Z,95361.09
2023-03-29T01:10:11.948Z,95360.81
2023-03-29T01:12:44.071Z,95348.53
2023-03-29T01:15:12.439Z,95338.41
2023-03-29T01:17:40.464Z,95333.97
2023-03-29T01:20:14.255Z,95315.19
2023-03-29T01:23:00.737Z,95318.13
2023-03-29T01:25:37.361Z,95309.06
2023-03-29T01:28:09.054Z,95309.00
2023-03-29T01:30:42.368Z,95288.66
2023-03-29T01:33:13.819Z,95280.16
2023-03-29T01:35:44.754Z,95281.84
2023-03-29T01:38:18.536Z,95278.53
2023-03-29T01:40:45.171Z,95248.06
2023-03-29T01:43:23.417Z,95245.41
2023-03-29T01:45:58.100Z,95239.41
2023-03-29T01:48:30.309Z,95238.63
2023-03-29T01:51:04.666Z,95234.06
2023-03-29T01:53:38.513Z,95227.19
2023-03-29T01:56:11.554Z,95214.03
2023-03-29T01:58:43.357Z,95209.78
2023-03-29T02:01:13.993Z,95197.31
2023-03-29T02:03:44.544Z,95218.28
2023-03-29T02:06:13.207Z,95206.91
2023-03-29T02:08:41.443Z,95212.56
2023-03-29T02:11:09.312Z,95209.81
2023-03-29T02:13:36.432Z,95198.16
2023-03-29T02:16:09.604Z,95193.53
2023-03-29T02:18:36.324Z,95193.41
2023-03-29T02:21:03.254Z,95177.44
2023-03-29T02:23:34.169Z,95178.03
2023-03-29T02:26:02.180Z,95172.22
2023-03-29T02:28:30.289Z,95146.16
2023-03-29T02:31:04.754Z,95155.66
2023-03-29T02:33:42.092Z,95147.41
2023-03-29T02:36:13.030Z,95147.78
2023-03-29T02:38:40.635Z,95145.44
2023-03-29T02:41:08.305Z,95147.06
2023-03-29T02:43:36.399Z,95148.75
2023-03-29T02:46:05.098Z,95147.41
2023-03-29T02:48:35.571Z,95154.28
2023-03-29T02:51:08.661Z,95145.91
2023-03-29T02:53:41.449Z,95152.97
2023-03-29T02:56:09.194Z,95144.63
2023-03-29T02:58:36.673Z,95143.84
2023-03-29T03:01:06.732Z,95150.09
2023-03-29T03:03:35.851Z,95146.72
2023-03-29T03:06:03.111Z,95158.53
2023-03-29T03:08:29.921Z,95167.09
2023-03-29T03:10:56.618Z,95166.13
2023-03-29T03:13:23.194Z,95168.78
2023-03-29T03:15:50.228Z,95159.91
2023-03-29T03:18:17.554Z,95154.78
2023-03-29T03:20:54.639Z,95159.47
2023-03-29T03:23:21.272Z,95168.22
2023-03-29T03:25:49.128Z,95178.56
2023-03-29T03:28:15.794Z,95177.69
2023-03-29T03:30:42.390Z,95177.06
2023-03-29T03:33:09.184Z,95180.56
2023-03-29T03:35:35.782Z,95187.06
2023-03-29T03:38:03.824Z,95180.56
2023-03-29T03:40:30.666Z,95179.84
2023-03-29T03:42:57.236Z,95181.56
2023-03-29T03:45:24.740Z,95172.50
2023-03-29T03:47:51.891Z,95175.31
2023-03-29T03:50:19.179Z,95172.81
2023-03-29T03:52:45.871Z,95150.94
2023-03-29T03:55:14.250Z,95134.16
2023-03-29T03:57:40.802Z,95127.56
2023-03-29T04:00:18.302Z,95133.44
2023-03-29T04:02:45.564Z,95115.06
2023-03-29T04:05:12.209Z,95097.50
2023-03-29T04:07:39.013Z,95103.81
2023-03-29T04:10:08.991Z,95111.13
2023-03-29T04:12:37.336Z,95108.13
2023-03-29T04:15:05.083Z,95105.38
2023-03-29T04:17:31.796Z,95107.03
2023-03-29T04:19:58.797Z,95113.16
2023-03-29T04:22:25.819Z,95109.28
2023-03-29T04:24:52.652Z,95110.22
2023-03-29T04:27:19.461Z,95100.44
2023-03-29T04:29:48.135Z,95107.91
2023-03-29T04:32:14.974Z,95102.25
2023-03-29T04:34:41.574Z,95108.94
2023-03-29T04:37:10.437Z,95104.13
2023-03-29T04:39:37.393Z,95099.34
2023-03-29T04:42:05.138Z,95100.44
2023-03-29T04:44:33.644Z,95093.38
2023-03-29T04:47:01.700Z,95090.72
2023-03-29T04:49:28.948Z,95081.13
2023-03-29T04:51:55.562Z,95072.13
2023-03-29T04:54:22.370Z,95080.06
2023-03-29T04:56:49.120Z,95086.31
2023-03-29T04:59:15.989Z,95079.91
2023-03-29T05:01:42.658Z,95083.13
2023-03-29T05:04:12.643Z,95079.06
2023-03-29T05:06:40.051Z,95086.63
2023-03-29T05:09:07.388Z,95074.38
2023-03-29T05:11:33.989Z,95085.31
2023-03-29T05:14:03.203Z,95104.34
2023-03-29T05:16:30.224Z,95098.72
2023-03-29T05:18:57.096Z,95096.59
2023-03-29T05:21:28.511Z,95091.09
2023-03-29T05:23:55.226Z,95100.44
2023-03-29T05:26:22.324Z,95097.38
2023-03-29T05:28:49.089Z,95099.44
2023-03-29T05:31:17.126Z,95099.69
2023-03-29T05:33:44.185Z,95101.72
2023-03-29T05:36:14.101Z,95100.06
2023-03-29T05:38:45.113Z,95089.66
2023-03-29T05:41:11.792Z,95092.97
2023-03-29T05:43:38.467Z,95081.81
2023-03-29T05:46:06.248Z,95084.81
2023-03-29T05:48:33.578Z,95080.66
2023-03-29T05:51:00.521Z,95090.66
2023-03-29T05:53:27.557Z,95093.44
2023-03-29T05:55:56.127Z,95089.38
2023-03-29T05:58:23.439Z,95096.38
2023-03-29T06:00:51.249Z,95098.66
2023-03-29T06:03:21.451Z,95109.28
2023-03-29T06:05:50.043Z,95112.22
2023-03-29T06:08:17.170Z,95108.94
2023-03-29T06:10:44.106Z,95122.78
2023-03-29T06:13:12.786Z,95113.97
2023-03-29T06:15:39.460Z,95126.75
2023-03-29T06:18:06.257Z,95125.47
2023-03-29T06:20:33.311Z,95139.16
2023-03-29T06:22:59.943Z,95145.75
2023-03-29T06:25:26.700Z,95143.41
2023-03-29T06:27:54.169Z,95139.63
2023-03-29T06:30:22.300Z,95144.25
2023-03-29T06:32:50.413Z,95147.25
2023-03-29T06:35:17.260Z,95149.34
2023-03-29T06:37:49.583Z,95151.28
2023-03-29T06:40:21.175Z,95151.09
2023-03-29T06:42:48.686Z,95155.75
2023-03-29T06:45:15.948Z,95161.19
2023-03-29T06:47:44.042Z,95170.50
2023-03-29T06:50:11.571Z,95180.06
2023-03-29T06:52:38.168Z,95166.03
2023-03-29T06:55:07.780Z,95177.50
2023-03-29T06:57:34.458Z,95174.00
2023-03-29T07:00:01.620Z,95178.00
2023-03-29T07:02:29.114Z,95176.19
2023-03-29T07:04:57.185Z,95180.56
2023-03-29T07:07:27.461Z,95193.66
2023-03-29T07:09:54.318Z,95185.63
2023-03-29T07:12:22.177Z,95182.84
2023-03-29T07:14:48.853Z,95181.94
2023-03-29T07:17:16.634Z,95187.44
2023-03-29T07:19:43.574Z,95194.31
2023-03-29T07:22:11.548Z,95189.28
2023-03-29T07:24:38.135Z,95183.63
2023-03-29T07:27:05.093Z,95185.25
2023-03-29T07:29:32.091Z,95192.69
2023-03-29T07:31:58.997Z,95178.81
2023-03-29T07:34:25.647Z,95182.31
2023-03-29T07:36:52.553Z,95183.09
2023-03-29T07:39:20.511Z,95187.13
2023-03-29T07:41:47.162Z,95174.06
2023-03-29T07:44:13.975Z,95176.56
2023-03-29T07:46:43.089Z,95166.69
2023-03-29T07:49:11.638Z,95173.75
2023-03-29T07:51:38.378Z,95175.41
2023-03-29T07:54:06.410Z,95173.75
2023-03-29T07:56:34.429Z,95193.97
2023-03-29T07:59:01.074Z,95188.19
2023-03-29T08:01:28.003Z,95186.25
2023-03-29T08:03:55.148Z,95183.47
2023-03-29T08:06:22.188Z,95191.22
2023-03-29T08:08:48.772Z,95192.06
2023-03-29T08:11:15.606Z,95196.34
2023-03-29T08:13:43.610Z,95187.69
2023-03-29T08:16:10.413Z,95185.66
2023-03-29T08:18:37.011Z,95182.66
2023-03-29T08:21:04.172Z,95174.31
2023-03-29T08:23:31.692Z,95186.88
2023-03-29T08:25:58.247Z,95190.88
2023-03-29T08:28:24.878Z,95188.72
2023-03-29T08:30:53.495Z,95188.91
2023-03-29T08:33:20.146Z,95199.84
2023-03-29T08:35:47.489Z,95194.59
2023-03-29T08:38:14.246Z,95194.03
2023-03-29T08:40:41.356Z,95194.81
2023-03-29T08:43:38.278Z,95177.53
2023-03-29T08:46:18.486Z,95160.91
2023-03-29T08:48:49.647Z,95173.78
2023-03-29T08:51:22.187Z,95153.06
2023-03-29T08:53:52.557Z,95166.41
2023-03-29T08:56:23.141Z,95155.28
2023-03-29T08:58:51.317Z,95156.59
2023-03-29T09:01:21.801Z,95148.28
2023-03-29T09:03:55.808Z,95137.50
2023-03-29T09:06:22.952Z,95149.34
2023-03-29T09:08:52.477Z,95146.59
2023-03-29T09:11:34.082Z,95133.69
2023-03-29T09:14:13.489Z,95144.34
2023-03-29T09:16:49.300Z,95151.63
2023-03-29T09:19:25.569Z,95136.41
2023-03-29T09:22:01.948Z,95146.72
2023-03-29T09:24:49.148Z,95147.66
2023-03-29T09:27:23.893Z,95142.81
2023-03-29T09:30:02.053Z,95127.75
2023-03-29T09:32:33.039Z,95133.06
2023-03-29T09:35:07.866Z,95125.38
2023-03-29T09:37:37.219Z,95135.28
2023-03-29T09:40:11.237Z,95131.44
2023-03-29T09:42:39.467Z,95130.00
2023-03-29T09:45:10.701Z,95126.56
2023-03-29T09:47:44.657Z,95120.69
2023-03-29T09:50:29.636Z,95105.44
2023-03-29T09:52:58.367Z,95116.25
2023-03-29T09:55:28.185Z,95119.09
2023-03-29T09:57:57.917Z,95102.50
2023-03-29T10:00:25.082Z,95111.41
2023-03-29T10:02:54.682Z,95090.88
2023-03-29T10:05:22.060Z,95103.31
2023-03-29T10:07:51.729Z,95105.34
2023-03-29T10:10:22.076Z,95096.00
2023-03-29T10:12:52.144Z,95090.56
2023-03-29T10:15:29.424Z,95092.19
2023-03-29T10:18:03.681Z,95090.75
2023-03-29T10:20:30.412Z,95085.25
2023-03-29T10:22:59.320Z,95085.91
2023-03-29T10:25:28.733Z,95075.19
2023-03-29T10:28:02.752Z,95063.19
2023-03-29T10:30:33.355Z,95054.59
2023-03-29T10:33:01.638Z,95062.63
2023-03-29T10:35:34.769Z,95035.69
2023-03-29T10:38:04.724Z,95047.53
2023-03-29T10:40:33.822Z,95046.50
2023-03-29T10:43:10.833Z,95037.13
2023-03-29T10:45:39.050Z,95040.66
2023-03-29T10:48:12.844Z,95032.34
2023-03-29T10:50:39.679Z,95037.13
2023-03-29T10:53:14.714Z,95011.94
2023-03-29T10:55:47.285Z,94994.47
2023-03-29T10:58:26.163Z,95004.25
2023-03-29T11:00:57.004Z,95009.50
2023-03-29T11:03:40.402Z,94998.94
2023-03-29T11:06:16.621Z,95007.63
2023-03-29T11:08:52.641Z,94997.44
2023-03-29T11:11:35.064Z,95006.47
2023-03-29T11:14:11.456Z,95020.47
2023-03-29T11:16:45.487Z,95014.28
2023-03-29T11:19:25.988Z,94995.31
2023-03-29T11:22:00.956Z,95007.19
2023-03-29T11:24:48.627Z,94998.78
2023-03-29T11:27:27.507Z,94995.59
2023-03-29T11:30:07.026Z,95009.34
2023-03-29T11:32:41.301Z,95012.66
2023-03-29T11:35:22.207Z,95003.97
2023-03-29T11:37:55.771Z,95000.19
2023-03-29T11:40:43.350Z,95014.34
2023-03-29T11:43:15.198Z,95010.47
2023-03-29T11:45:46.112Z,94993.19
2023-03-29T11:48:18.926Z,95001.00
2023-03-29T11:50:53.419Z,94990.13
2023-03-29T11:53:25.610Z,94982.41
2023-03-29T11:55:55.463Z,94994.84
2023-03-29T11:58:27.674Z,94997.88
2023-03-29T12:01:00.296Z,94994.94
2023-03-29T12:03:37.132Z,95000.44
2023-03-29T12:06:13.988Z,94994.63
2023-03-29T12:08:44.882Z,94995.16
2023-03-29T12:11:18.955Z,94986.88
2023-03-29T12:13:49.692Z,94981.41
2023-03-29T12:16:20.510Z,94978.56
2023-03-29T12:18:49.506Z,94986.53
2023-03-29T12:21:20.642Z,94983.22
2023-03-29T12:23:48.840Z,94979.06
2023-03-29T12:26:32.480Z,94990.81
2023-03-29T12:29:16.563Z,94985.66
2023-03-29T12:31:53.105Z,94978.31
2023-03-29T12:34:43.373Z,94965.22
2023-03-29T12:37:24.304Z,94974.28
2023-03-29T12:39:52.054Z,94965.28
2023-03-29T12:42:21.258Z,94977.03
2023-03-29T12:44:51.477Z,94990.00
2023-03-29T12:47:23.462Z,94977.72
2023-03-29T12:49:54.375Z,94989.31
2023-03-29T12:52:30.460Z,94990.38
2023-03-29T12:54:58.798Z,94989.31
2023-03-29T12:57:29.060Z,94991.97
2023-03-29T12:59:56.381Z,94989.94
2023-03-29T13:02:34.971Z,95010.53
2023-03-29T13:05:02.246Z,95019.06
2023-03-29T13:07:33.543Z,95006.34
2023-03-29T13:10:03.388Z,95009.59
2023-03-29T13:12:39.471Z,94997.47
2023-03-29T13:15:21.391Z,94992.84
2023-03-29T13:17:56.190Z,95001.00
2023-03-29T13:20:38.593Z,94999.09
2023-03-29T13:23:22.450Z,94994.00
2023-03-29T13:26:08.038Z,94994.22
2023-03-29T13:28:44.030Z,94987.66
2023-03-29T13:31:26.633Z,94991.66
2023-03-29T13:34:01.335Z,95001.94
2023-03-29T13:36:39.511Z,95011.25
2023-03-29T13:39:16.170Z,95002.81
2023-03-29T13:41:48.153Z,95002.13
2023-03-29T13:44:25.974Z,95011.66
2023-03-29T13:47:03.923Z,95002.38
2023-03-29T13:49:33.868Z,95005.38
2023-03-29T13:52:07.110Z,95001.81
2023-03-29T13:54:42.715Z,95005.53
2023-03-29T13:57:14.403Z,95013.56
2023-03-29T13:59:49.324Z,94997.13
2023-03-29T14:02:25.329Z,95009.66
2023-03-29T14:04:53.467Z,95011.22
2023-03-29T14:07:26.222Z,94996.91
2023-03-29T14:09:56.397Z,94987.97
2023-03-29T14:12:23.402Z,94989.34
2023-03-29T14:14:58.941Z,95003.47
2023-03-29T14:17:26.921Z,94994.41
2023-03-29T14:19:57.697Z,94987.38
2023-03-29T14:22:28.805Z,94997.03
2023-03-29T14:25:01.944Z,95006.94
2023-03-29T14:27:31.096Z,94996.19
2023-03-29T14:29:57.752Z,94978.41
2023-03-29T14:32:29.377Z,94986.56
2023-03-29T14:34:56.124Z,94982.22
2023-03-29T14:37:25.294Z,94986.44
2023-03-29T14:39:52.403Z,94997.41
2023-03-29T14:42:26.724Z,95004.03
2023-03-29T14:44:58.040Z,95009.88
2023-03-29T14:47:27.729Z,95023.44
2023-03-29T14:49:56.109Z,94994.50
2023-03-29T14:52:23.725Z,94991.22
2023-03-29T14:54:53.050Z,94980.50
2023-03-29T14:57:24.572Z,94976.69
2023-03-29T14:59:56.658Z,94956.13
2023-03-29T15:02:25.640Z,94957.53
2023-03-29T15:04:57.229Z,94954.84
2023-03-29T15:07:25.003Z,94956.78
2023-03-29T15:09:51.826Z,94943.91
2023-03-29T15:12:18.482Z,94951.00
2023-03-29T15:14:50.010Z,94941.41
2023-03-29T15:17:42.621Z,94940.81
2023-03-29T15:20:21.482Z,94925.09
2023-03-29T15:22:58.841Z,94920.41
2023-03-29T15:25:28.266Z,94923.03
2023-03-29T15:27:58.927Z,94910.03
2023-03-29T15:30:35.841Z,94918.25
2023-03-29T15:33:16.729Z,94947.00
2023-03-29T15:35:48.999Z,94941.72
2023-03-29T15:38:15.881Z,94947.81
2023-03-29T15:40:42.696Z,94951.41
2023-03-29T15:43:09.353Z,94938.69
2023-03-29T15:45:37.368Z,94912.16
2023-03-29T15:48:14.102Z,94916.66
2023-03-29T15:50:40.750Z,94929.50
2023-03-29T15:53:15.174Z,94936.47
2023-03-29T15:55:45.052Z,94919.50
2023-03-29T15:58:14.091Z,94913.88
2023-03-29T16:00:44.502Z,94903.44
2023-03-29T16:03:16.240Z,94863.63
2023-03-29T16:05:43.538Z,94910.47
2023-03-29T16:08:10.876Z,94913.63
2023-03-29T16:10:37.715Z,94917.31
2023-03-29T16:13:04.606Z,94902.44
2023-03-29T16:15:32.503Z,94886.28
2023-03-29T16:18:00.505Z,94888.59
2023-03-29T16:20:27.227Z,94882.25
2023-03-29T16:22:54.171Z,94875.72
2023-03-29T16:25:22.744Z,94874.47
2023-03-29T16:27:50.670Z,94883.16
2023-03-29T16:30:19.748Z,94888.09
2023-03-29T16:32:46.400Z,94880.22
2023-03-29T16:35:21.782Z,94889.00
2023-03-29T16:37:48.485Z,94891.22
2023-03-29T16:40:18.434Z,94893.25
2023-03-29T16:42:45.212Z,94897.72
2023-03-29T16:45:13.699Z,94897.31
2023-03-29T16:47:43.687Z,94902.19
2023-03-29T16:50:12.038Z,94912.06
2023-03-29T16:52:40.545Z,94914.75
2023-03-29T16:55:09.084Z,94912.88
2023-03-29T16:57:35.853Z,94910.31
2023-03-29T17:00:03.904Z,94905.78
2023-03-29T17:02:30.699Z,94907.47
2023-03-29T17:04:57.478Z,94897.63
2023-03-29T17:07:24.225Z,94907.91
2023-03-29T17:09:52.476Z,94902.41
2023-03-29T17:12:21.114Z,94901.66
2023-03-29T17:14:47.721Z,94892.72
2023-03-29T17:17:14.671Z,94902.69
2023-03-29T17:19:41.293Z,94909.22
2023-03-29T17:22:07.952Z,94897.34
2023-03-29T17:24:34.510Z,94900.28
2023-03-29T17:27:02.445Z,94902.69
2023-03-29T17:29:29.184Z,94895.81
2023-03-29T17:31:56.202Z,94903.47
2023-03-29T17:34:23.143Z,94899.13
2023-03-29T17:36:53.169Z,94908.66
2023-03-29T17:39:19.731Z,94906.44
2023-03-29T17:41:48.221Z,94907.84
2023-03-29T17:44:16.319Z,94908.72
2023-03-29T17:46:42.928Z,94917.53
2023-03-29T17:49:09.736Z,94907.03
2023-03-29T17:51:36.366Z,94902.13
2023-03-29T17:54:03.960Z,94905.78
2023-03-29T17:56:30.895Z,94908.34
2023-03-29T17:58:57.728Z,94908.56
2023-03-29T18:01:25.716Z,94897.91
2023-03-29T18:03:52.389Z,94901.66
2023-03-29T18:06:20.912Z,94902.34
2023-03-29T18:08:47.645Z,94890.41
2023-03-29T18:11:18.797Z,94904.78
2023-03-29T18:13:45.586Z,94908.34
2023-03-29T18:16:12.230Z,94897.00
2023-03-29T18:18:41.595Z,94900.34
2023-03-29T18:21:10.176Z,94914.47
2023-03-29T18:23:39.827Z,94913.97
2023-03-29T18:26:07.346Z,94909.59
2023-03-29T18:28:34.996Z,94917.91
2023-03-29T18:31:01.693Z,94923.75
2023-03-29T18:33:30.202Z,94918.84
2023-03-29T18:35:58.179Z,94921.94
2023-03-29T18:38:24.896Z,94922.94
2023-03-29T18:40:51.986Z,94931.75
2023-03-29T18:43:22.630Z,94924.44
2023-03-29T18:45:49.387Z,94942.25
2023-03-29T18:48:16.002Z,94939.94
2023-03-29T18:50:44.770Z,94937.06
2023-03-29T18:53:13.412Z,94952.72
2023-03-29T18:55:42.559Z,94944.63
2023-03-29T18:58:09.620Z,94948.56
2023-03-29T19:00:36.850Z,94938.97
2023-03-29T19:03:04.133Z,94926.97
2023-03-29T19:05:31.346Z,94928.78
2023-03-29T19:07:58.457Z,94939.31
2023-03-29T19:10:27.378Z,94923.91
2023-03-29T19:12:53.977Z,94941.06
2023-03-29T19:15:20.625Z,94942.78
2023-03-29T19:17:47.282Z,94954.22
2023-03-29T19:20:14.054Z,94949.94
2023-03-29T19:22:40.996Z,94949.53
2023-03-29T19:25:09.432Z,94944.69
2023-03-29T19:27:37.542Z,94947.91
2023-03-29T19:30:05.373Z,94953.78
2023-03-29T19:32:33.646Z,94947.13
2023-03-29T19:35:00.697Z,94941.47
2023-03-29T19:37:27.443Z,94962.97
2023-03-29T19:39:55.588Z,94964.38
2023-03-29T19:42:22.280Z,94964.59
2023-03-29T19:44:50.374Z,94979.38
2023-03-29T19:47:17.134Z,94992.34
2023-03-29T19:49:46.147Z,94989.03
2023-03-29T19:52:12.864Z,94998.22
2023-03-29T19:54:39.743Z,94999.59
2023-03-29T19:57:09.181Z,94998.63
2023-03-29T19:59:37.794Z,94992.66
2023-03-29T20:02:06.528Z,94977.78
2023-03-29T20:04:33.359Z,94978.69
2023-03-29T20:07:00.062Z,94981.63
2023-03-29T20:09:26.719Z,94972.75
2023-03-29T20:11:53.283Z,94973.66
2023-03-29T20:14:19.915Z,94959.75
2023-03-29T20:16:46.713Z,94940.06
2023-03-29T20:19:17.724Z,94933.44
2023-03-29T20:21:44.724Z,94930.28
2023-03-29T20:24:11.552Z,94930.13
2023-03-29T20:26:38.183Z,94913.38
2023-03-29T20:29:04.764Z,94907.09
2023-03-29T20:31:31.599Z,94919.31
2023-03-29T20:33:58.463Z,94908.19
2023-03-29T20:36:26.584Z,94906.38
2023-03-29T20:38:56.147Z,94907.31
2023-03-29T20:41:22.942Z,94917.81
2023-03-29T20:43:58.346Z,94904.75
2023-03-29T20:46:33.015Z,94901.59
2023-03-29T20:49:00.550Z,94900.22
2023-03-29T20:51:30.387Z,94892.28
2023-03-29T20:54:02.800Z,94890.31
2023-03-29T20:56:29.757Z,94876.69
2023-03-29T20:58:57.123Z,94861.28
2023-03-29T21:01:24.334Z,94864.38
2023-03-29T21:03:51.630Z,94868.63
2023-03-29T21:06:19.272Z,94867.13
2023-03-29T21:08:47.475Z,94858.03
2023-03-29T21:11:15.341Z,94868.19
2023-03-29T21:13:42.219Z,94855.66
2023-03-29T21:16:09.803Z,94857.16
2023-03-29T21:18:38.013Z,94849.81
2023-03-29T21:21:06.188Z,94858.78
2023-03-29T21:23:32.795Z,94859.53
2023-03-29T21:26:01.034Z,94851.88
2023-03-29T21:28:27.689Z,94853.72
2023-03-29T21:30:54.512Z,94841.72
2023-03-29T21:33:21.119Z,94836.09
2023-03-29T21:35:48.002Z,94836.03
2023-03-29T21:38:15.153Z,94833.09
2023-03-29T21:40:41.774Z,94841.78
2023-03-29T21:43:09.710Z,94827.75
2023-03-29T21:45:36.349Z,94822.53
2023-03-29T21:48:03.029Z,94833.41
2023-03-29T21:50:33.238Z,94821.31
2023-03-29T21:53:01.714Z,94815.72
2023-03-29T21:55:28.319Z,94809.06
2023-03-29T21:57:55.063Z,94808.69
2023-03-29T22:00:23.257Z,94806.38
2023-03-29T22:02:49.899Z,94815.88
2023-03-29T22:05:16.624Z,94792.84
2023-03-29T22:07:43.291Z,94793.19
2023-03-29T22:10:11.732Z,94801.28
2023-03-29T22:12:39.418Z,94805.25
2023-03-29T22:15:07.865Z,94795.56
2023-03-29T22:17:36.043Z,94775.47
2023-03-29T22:20:04.489Z,94789.28
2023-03-29T22:22:31.146Z,94800.78
2023-03-29T22:24:57.718Z,94796.16
2023-03-29T22:27:24.368Z,94797.69
2023-03-29T22:29:51.168Z,94794.06
2023-03-29T22:32:17.959Z,94791.16
2023-03-29T22:34:46.060Z,94797.69
2023-03-29T22:37:12.625Z,94794.59
2023-03-29T22:39:39.230Z,94790.66
2023-03-29T22:42:05.967Z,94788.38
2023-03-29T22:44:33.791Z,94797.47
2023-03-29T22:47:00.487Z,94783.31
2023-03-29T22:49:27.204Z,94786.78
2023-03-29T22:51:55.276Z,94790.81
2023-03-29T22:54:21.932Z,94798.94
2023-03-29T22:56:48.598Z,94791.47
2023-03-29T22:59:15.868Z,94805.34
2023-03-29T23:01:42.671Z,94807.91
2023-03-29T23:04:09.379Z,94796.44
2023-03-29T23:06:35.959Z,94800.78
2023-03-29T23:09:04.445Z,94804.81
2023-03-29T23:11:31.057Z,94794.91
2023-03-29T23:13:57.724Z,94791.81
2023-03-29T23:16:24.521Z,94793.22
2023-03-29T23:18:51.205Z,94790.72
2023-03-29T23:21:17.728Z,94788.47
2023-03-29T23:23:44.697Z,94787.72
2023-03-29T23:26:12.631Z,94781.13
2023-03-29T23:28:40.986Z,94788.44
2023-03-29T23:31:10.547Z,94784.00
2023-03-29T23:33:38.552Z,94780.78
2023-03-29T23:36:07.779Z,94764.44
2023-03-29T23:38:36.583Z,94775.75
2023-03-29T23:41:06.570Z,94775.16
2023-03-29T23:43:37.176Z,94771.34
2023-03-29T23:46:06.898Z,94769.63
2023-03-29T23:48:34.300Z,94757.03
2023-03-29T23:51:01.681Z,94747.44
2023-03-29T23:53:29.871Z,94761.38
2023-03-29T23:55:58.142Z,94761.06
2023-03-29T23:58:25.062Z,94761.25
